Time;durP1;ratioP1;P1;durP2;ratioP2;P2;SDS_P1;SDS_P2;PMS_P1;PMS_P2;Temp;Humidity;BMP_temperature;BMP_pressure;BME280_temperature;BME280_humidity;BME280_pressure;Samples;Min_cycle;Max_cycle;Signal;HPM_P1;HPM_P2
2021/04/09 00:02:21;;;;;;;;;;;15.60;50.80;;;;;;5054452;28;75335;-65
2021/04/09 00:04:47;;;;;;;;;;;15.60;50.70;;;;;;5054477;28;75115;-68
2021/04/09 00:07:13;;;;;;;;;;;15.60;50.90;;;;;;5054833;28;74575;-66
2021/04/09 00:09:39;;;;;;;;;;;15.50;50.80;;;;;;5054919;27;75516;-67
2021/04/09 00:12:04;;;;;;;;;;;15.50;50.70;;;;;;5054371;28;75086;-65
2021/04/09 00:14:30;;;;;;;;;;;15.50;50.90;;;;;;5054949;28;74424;-68
2021/04/09 00:16:56;;;;;;;;;;;15.50;51.00;;;;;;5054229;28;75833;-63
2021/04/09 00:19:23;;;;;;;;;;;15.40;51.10;;;;;;5052825;28;75941;-65
2021/04/09 00:21:49;;;;;;;;;;;15.40;51.10;;;;;;5054368;28;75178;-70
2021/04/09 00:24:14;;;;;;;;;;;15.40;51.20;;;;;;5054330;28;75026;-66
2021/04/09 00:26:40;;;;;;;;;;;15.40;51.30;;;;;;5054383;28;75574;-61
2021/04/09 00:29:06;;;;;;;;;;;15.30;51.20;;;;;;5053008;27;75242;-63
2021/04/09 00:31:32;;;;;;;;;;;15.20;51.70;;;;;;5053763;28;75366;-66
2021/04/09 00:33:58;;;;;;;;;;;15.10;51.80;;;;;;5052825;28;76171;-64
2021/04/09 00:36:23;;;;;;;;;;;15.00;51.90;;;;;;5054331;28;75015;-65
2021/04/09 00:38:49;;;;;;;;;;;14.90;52.50;;;;;;5053938;27;75426;-67
2021/04/09 00:41:15;;;;;;;;;;;14.90;52.30;;;;;;5053996;28;75032;-66
2021/04/09 00:43:41;;;;;;;;;;;14.90;52.40;;;;;;5053823;28;75213;-66
2021/04/09 00:46:07;;;;;;;;;;;14.80;52.50;;;;;;5052658;28;77312;-67
2021/04/09 00:48:33;;;;;;;;;;;14.80;52.50;;;;;;5053922;28;75556;-63
2021/04/09 00:50:58;;;;;;;;;;;14.80;52.50;;;;;;5053882;28;75682;-64
2021/04/09 00:53:25;;;;;;;;;;;14.80;52.50;;;;;;5053607;28;76705;-66
2021/04/09 00:55:51;;;;;;;;;;;14.80;52.50;;;;;;5052599;28;77492;-64
2021/04/09 00:58:17;;;;;;;;;;;14.70;52.70;;;;;;5053950;28;75166;-65
2021/04/09 01:00:42;;;;;;;;;;;14.80;52.70;;;;;;5053256;28;75151;-63
2021/04/09 01:03:08;;;;;;;;;;;14.80;52.60;;;;;;5051999;28;76649;-64
2021/04/09 01:05:34;;;;;;;;;;;14.70;52.70;;;;;;5053845;28;75844;-64
2021/04/09 01:08:02;;;;;;;;;;;14.70;52.80;;;;;;5054157;28;74479;-62
2021/04/09 01:10:28;;;;;;;;;;;14.70;52.90;;;;;;5053735;27;74421;-63
2021/04/09 01:12:53;;;;;;;;;;;14.80;52.80;;;;;;5052142;28;77831;-65
2021/04/09 01:15:19;;;;;;;;;;;14.70;52.90;;;;;;5052168;28;76275;-62
2021/04/09 01:17:48;;;;;;;;;;;14.70;52.90;;;;;;5053379;28;75622;-69
2021/04/09 01:20:38;;;;;;;;;;;14.70;53.00;;;;;;5053521;28;75662;-65
2021/04/09 01:23:10;;;;;;;;;;;14.60;53.20;;;;;;5053687;28;75670;-69
2021/04/09 01:25:54;;;;;;;;;;;14.50;53.30;;;;;;5053423;28;75167;-65
2021/04/09 01:28:38;;;;;;;;;;;14.50;53.50;;;;;;5053212;27;75221;-64
2021/04/09 01:31:04;;;;;;;;;;;14.50;53.50;;;;;;5052825;28;75486;-65
2021/04/09 01:33:32;;;;;;;;;;;14.50;53.60;;;;;;5053070;28;75194;-69
2021/04/09 01:36:01;;;;;;;;;;;14.40;53.80;;;;;;5051306;28;75755;-66
2021/04/09 01:38:28;;;;;;;;;;;14.40;53.80;;;;;;5052939;27;75393;-64
2021/04/09 01:40:55;;;;;;;;;;;14.40;53.90;;;;;;5051698;27;75261;-64
2021/04/09 01:43:21;;;;;;;;;;;14.40;53.80;;;;;;5052871;28;76060;-66
2021/04/09 01:45:47;;;;;;;;;;;14.40;53.70;;;;;;5052966;28;75237;-68
2021/04/09 01:48:13;;;;;;;;;;;14.40;53.80;;;;;;5053280;28;75515;-68
2021/04/09 01:50:40;;;;;;;;;;;14.40;54.20;;;;;;5053262;28;75114;-66
2021/04/09 01:53:06;;;;;;;;;;;14.40;54.00;;;;;;5052953;28;75367;-70
2021/04/09 01:55:35;;;;;;;;;;;14.40;54.10;;;;;;5052794;28;76518;-64
2021/04/09 01:58:01;;;;;;;;;;;14.30;54.00;;;;;;5052332;28;75524;-66
2021/04/09 02:00:27;;;;;;;;;;;14.40;53.90;;;;;;5053001;28;75193;-65
2021/04/09 02:02:53;;;;;;;;;;;14.40;54.00;;;;;;5052806;28;75337;-65
2021/04/09 02:05:20;;;;;;;;;;;14.40;53.80;;;;;;5052567;28;75337;-62
2021/04/09 02:07:47;;;;;;;;;;;14.40;53.90;;;;;;5053024;28;75750;-62
2021/04/09 02:10:13;;;;;;;;;;;14.40;53.90;;;;;;5052790;27;75841;-63
2021/04/09 02:12:40;;;;;;;;;;;14.40;53.80;;;;;;5052597;28;75211;-63
2021/04/09 02:15:08;;;;;;;;;;;14.40;53.70;;;;;;5052631;28;74974;-62
2021/04/09 02:17:34;;;;;;;;;;;14.40;53.80;;;;;;5052245;28;75701;-65
2021/04/09 02:20:00;;;;;;;;;;;14.30;53.90;;;;;;5052132;28;76351;-64
2021/04/09 02:22:26;;;;;;;;;;;14.30;54.20;;;;;;5052746;28;74414;-63
2021/04/09 02:24:51;;;;;;;;;;;14.20;54.10;;;;;;5052971;28;74479;-63
2021/04/09 02:27:17;;;;;;;;;;;14.20;54.20;;;;;;5052667;28;75670;-64
2021/04/09 02:29:43;;;;;;;;;;;14.20;54.00;;;;;;5052422;28;75827;-63
2021/04/09 02:32:09;;;;;;;;;;;14.20;54.00;;;;;;5051911;28;75208;-64
2021/04/09 02:34:35;;;;;;;;;;;14.30;53.90;;;;;;5052917;28;75851;-65
2021/04/09 02:37:00;;;;;;;;;;;14.30;54.00;;;;;;5052479;28;75242;-63
2021/04/09 02:39:26;;;;;;;;;;;14.30;54.00;;;;;;5052338;27;75049;-61
2021/04/09 02:41:54;;;;;;;;;;;14.20;54.20;;;;;;5052616;28;74508;-62
2021/04/09 02:44:20;;;;;;;;;;;14.20;54.20;;;;;;5052344;28;75217;-61
2021/04/09 02:46:52;;;;;;;;;;;14.20;54.30;;;;;;5050401;28;76471;-67
2021/04/09 02:49:36;;;;;;;;;;;14.10;54.40;;;;;;5052058;28;74487;-63
2021/04/09 02:52:03;;;;;;;;;;;14.20;54.40;;;;;;5052475;27;75825;-64
2021/04/09 02:54:30;;;;;;;;;;;14.10;54.30;;;;;;5056367;28;74463;-67
2021/04/09 02:56:56;;;;;;;;;;;14.10;54.40;;;;;;5055910;28;75270;-64
2021/04/09 02:59:22;;;;;;;;;;;14.10;54.40;;;;;;5055695;28;75224;-68
2021/04/09 03:01:48;;;;;;;;;;;14.10;54.30;;;;;;5055722;28;75086;-66
2021/04/09 03:04:14;;;;;;;;;;;14.20;54.30;;;;;;5055717;28;75735;-64
2021/04/09 03:06:42;;;;;;;;;;;14.20;54.30;;;;;;5054022;28;77208;-63
2021/04/09 03:09:08;;;;;;;;;;;14.20;54.30;;;;;;5055648;27;75413;-64
2021/04/09 03:11:33;;;;;;;;;;;14.20;54.70;;;;;;5055295;28;75216;-66
2021/04/09 03:14:00;;;;;;;;;;;14.20;54.80;;;;;;5054094;28;74598;-70
2021/04/09 03:16:26;;;;;;;;;;;14.20;55.00;;;;;;5055364;28;75275;-65
2021/04/09 03:18:52;;;;;;;;;;;14.10;54.80;;;;;;5055371;28;75235;-65
2021/04/09 03:21:17;;;;;;;;;;;14.00;55.20;;;;;;5055757;28;75121;-66
2021/04/09 03:23:43;;;;;;;;;;;14.00;55.60;;;;;;5055526;28;74981;-66
2021/04/09 03:26:09;;;;;;;;;;;14.10;55.80;;;;;;5055554;28;75013;-64
2021/04/09 03:28:34;;;;;;;;;;;14.10;55.90;;;;;;5055480;28;74457;-67
2021/04/09 03:31:00;;;;;;;;;;;14.00;55.80;;;;;;5053533;28;78591;-69
2021/04/09 03:33:26;;;;;;;;;;;14.00;55.70;;;;;;5055767;28;74397;-62
2021/04/09 03:35:51;;;;;;;;;;;13.90;56.10;;;;;;5055169;28;74970;-66
2021/04/09 03:38:17;;;;;;;;;;;13.90;56.10;;;;;;5053425;27;76594;-63
2021/04/09 03:40:43;;;;;;;;;;;13.90;55.90;;;;;;5055144;28;74421;-69
2021/04/09 03:43:09;;;;;;;;;;;13.90;55.80;;;;;;5053468;28;75513;-65
2021/04/09 03:45:35;;;;;;;;;;;13.90;55.80;;;;;;5055040;28;75268;-66
2021/04/09 03:48:00;;;;;;;;;;;13.90;55.80;;;;;;5053928;28;77919;-68
2021/04/09 03:50:26;;;;;;;;;;;13.90;55.70;;;;;;5055171;28;74571;-65
2021/04/09 03:52:51;;;;;;;;;;;13.90;55.60;;;;;;5054759;28;75265;-65
2021/04/09 03:55:17;;;;;;;;;;;13.90;55.30;;;;;;5055066;28;75101;-64
2021/04/09 03:57:43;;;;;;;;;;;14.00;55.30;;;;;;5054750;28;75317;-63
2021/04/09 04:00:09;;;;;;;;;;;14.00;55.30;;;;;;5054711;28;75549;-70
2021/04/09 04:02:35;;;;;;;;;;;13.90;54.90;;;;;;5054440;28;75524;-67
2021/04/09 04:05:01;;;;;;;;;;;13.90;55.20;;;;;;5052656;27;75442;-68
2021/04/09 04:07:26;;;;;;;;;;;13.90;55.20;;;;;;5054769;28;75062;-65
2021/04/09 04:09:52;;;;;;;;;;;13.90;55.20;;;;;;5054531;27;75407;-65
2021/04/09 04:12:17;;;;;;;;;;;13.80;55.30;;;;;;5054844;28;75046;-65
2021/04/09 04:14:43;;;;;;;;;;;13.80;55.20;;;;;;5054573;28;75440;-64
2021/04/09 04:17:09;;;;;;;;;;;13.80;55.30;;;;;;5054597;28;75253;-65
2021/04/09 04:19:34;;;;;;;;;;;13.80;55.10;;;;;;5052941;28;77028;-68
2021/04/09 04:22:00;;;;;;;;;;;13.70;55.10;;;;;;5054325;28;74522;-61
2021/04/09 04:24:25;;;;;;;;;;;13.70;55.20;;;;;;5054642;28;75115;-64
2021/04/09 04:26:51;;;;;;;;;;;13.80;55.10;;;;;;5054390;28;75168;-62
2021/04/09 04:29:17;;;;;;;;;;;13.80;55.00;;;;;;5054417;28;75285;-62
2021/04/09 04:31:42;;;;;;;;;;;13.80;55.10;;;;;;5052643;28;76572;-64
2021/04/09 04:34:08;;;;;;;;;;;13.80;54.90;;;;;;5054686;28;74734;-65
2021/04/09 04:36:34;;;;;;;;;;;13.80;54.90;;;;;;5054141;27;75831;-62
2021/04/09 04:38:59;;;;;;;;;;;13.80;55.20;;;;;;5054026;27;75160;-63
2021/04/09 04:41:25;;;;;;;;;;;13.70;55.30;;;;;;5054377;28;75177;-65
2021/04/09 04:43:51;;;;;;;;;;;13.70;55.60;;;;;;5052748;28;77055;-63
2021/04/09 04:46:16;;;;;;;;;;;13.70;55.70;;;;;;5054234;28;74946;-63
2021/04/09 04:48:42;;;;;;;;;;;13.70;55.70;;;;;;5054223;28;75925;-65
2021/04/09 04:51:07;;;;;;;;;;;13.70;55.40;;;;;;5052687;28;76647;-63
2021/04/09 04:53:33;;;;;;;;;;;13.60;55.50;;;;;;5054537;28;74568;-64
2021/04/09 04:55:59;;;;;;;;;;;13.70;55.60;;;;;;5053799;28;75219;-65
2021/04/09 04:58:24;;;;;;;;;;;13.60;55.60;;;;;;5054213;28;74967;-67
2021/04/09 05:00:50;;;;;;;;;;;13.60;55.70;;;;;;5053777;28;75085;-61
2021/04/09 05:03:15;;;;;;;;;;;13.60;55.90;;;;;;5052963;28;77199;-62
2021/04/09 05:05:41;;;;;;;;;;;13.60;55.70;;;;;;5053793;28;75683;-67
2021/04/09 05:08:07;;;;;;;;;;;13.60;55.90;;;;;;5054342;28;74622;-63
2021/04/09 05:10:32;;;;;;;;;;;13.60;55.90;;;;;;5053845;27;75085;-68
2021/04/09 05:12:58;;;;;;;;;;;13.60;56.00;;;;;;5053598;28;74394;-66
2021/04/09 05:15:23;;;;;;;;;;;13.50;55.90;;;;;;5052668;27;75763;-63
2021/04/09 05:17:49;;;;;;;;;;;13.50;56.00;;;;;;5053325;28;76541;-64
2021/04/09 05:20:15;;;;;;;;;;;13.50;56.30;;;;;;5053976;28;75659;-64
2021/04/09 05:22:40;;;;;;;;;;;13.50;56.30;;;;;;5053742;28;75240;-66
2021/04/09 05:25:06;;;;;;;;;;;13.50;56.30;;;;;;5053483;28;75109;-61
2021/04/09 05:27:32;;;;;;;;;;;13.50;56.30;;;;;;5054003;28;74443;-62
2021/04/09 05:29:59;;;;;;;;;;;13.50;56.30;;;;;;5053044;28;75290;-62
2021/04/09 05:32:25;;;;;;;;;;;13.50;56.30;;;;;;5053396;28;75173;-64
2021/04/09 05:34:50;;;;;;;;;;;13.50;56.60;;;;;;5051648;27;75396;-63
2021/04/09 05:37:16;;;;;;;;;;;13.50;56.60;;;;;;5055699;27;75803;-64
2021/04/09 05:39:41;;;;;;;;;;;13.40;56.50;;;;;;5046647;27;75208;-65
2021/04/09 05:42:07;;;;;;;;;;;13.40;56.70;;;;;;5038757;27;75969;-63
2021/04/09 05:44:34;;;;;;;;;;;13.40;57.20;;;;;;5041716;27;78179;-66
2021/04/09 05:47:01;;;;;;;;;;;13.40;57.10;;;;;;5037176;27;77060;-63
2021/04/09 05:49:26;;;;;;;;;;;13.30;57.60;;;;;;5040705;27;76511;-63
2021/04/09 05:51:52;;;;;;;;;;;13.20;57.70;;;;;;5042313;27;76248;-64
2021/04/09 05:54:17;;;;;;;;;;;13.00;58.20;;;;;;5043282;27;75898;-65
2021/04/09 05:56:43;;;;;;;;;;;12.90;58.80;;;;;;5043404;27;75403;-61
2021/04/09 05:59:09;;;;;;;;;;;12.80;59.60;;;;;;5048453;27;75977;-62
2021/04/09 06:01:34;;;;;;;;;;;12.80;60.20;;;;;;5040035;27;75842;-62
2021/04/09 06:04:00;;;;;;;;;;;12.70;61.20;;;;;;5043190;27;76595;-63
2021/04/09 06:06:25;;;;;;;;;;;12.70;61.90;;;;;;5044958;27;77152;-61
2021/04/09 06:08:51;;;;;;;;;;;12.70;62.20;;;;;;5037770;27;76806;-68
2021/04/09 06:11:17;;;;;;;;;;;12.70;63.00;;;;;;5042464;27;77193;-69
2021/04/09 06:13:42;;;;;;;;;;;12.60;63.50;;;;;;5043937;27;76562;-71
2021/04/09 06:16:08;;;;;;;;;;;12.50;64.30;;;;;;5041779;27;76927;-71
2021/04/09 06:18:34;;;;;;;;;;;12.50;64.80;;;;;;5041597;27;76397;-70
2021/04/09 06:20:59;;;;;;;;;;;12.50;65.00;;;;;;5040933;27;76376;-70
2021/04/09 06:23:25;;;;;;;;;;;12.50;65.10;;;;;;5044252;27;77489;-71
2021/04/09 06:25:51;;;;;;;;;;;12.50;65.50;;;;;;5042929;27;75954;-70
2021/04/09 06:28:16;;;;;;;;;;;12.50;65.80;;;;;;5039282;27;76146;-70
2021/04/09 06:30:42;;;;;;;;;;;12.50;66.40;;;;;;5045064;27;76627;-71
2021/04/09 06:33:08;;;;;;;;;;;12.50;66.50;;;;;;5043359;27;76051;-70
2021/04/09 06:35:33;;;;;;;;;;;12.50;67.70;;;;;;5041126;27;76791;-70
2021/04/09 06:37:59;;;;;;;;;;;12.40;67.70;;;;;;5043983;27;75946;-70
2021/04/09 06:40:26;;;;;;;;;;;12.40;67.70;;;;;;5041300;27;75869;-69
2021/04/09 06:42:55;;;;;;;;;;;12.40;67.70;;;;;;5041817;27;75739;-70
2021/04/09 06:45:21;;;;;;;;;;;12.30;68.20;;;;;;5042209;27;76268;-69
2021/04/09 06:47:47;;;;;;;;;;;12.30;68.30;;;;;;5041274;27;76116;-70
2021/04/09 06:50:12;;;;;;;;;;;12.30;68.20;;;;;;5043448;27;76253;-70
2021/04/09 06:52:38;;;;;;;;;;;12.20;68.80;;;;;;5041677;27;75946;-70
2021/04/09 06:55:04;;;;;;;;;;;12.10;68.60;;;;;;5039306;27;75788;-70
2021/04/09 06:57:33;;;;;;;;;;;12.20;68.90;;;;;;5040736;27;76601;-69
2021/04/09 07:00:01;;;;;;;;;;;12.10;70.00;;;;;;5041850;27;76382;-69
2021/04/09 07:02:27;;;;;;;;;;;12.10;69.10;;;;;;5044518;27;75755;-71
2021/04/09 07:04:53;;;;;;;;;;;12.10;68.50;;;;;;5037711;27;78641;-70
2021/04/09 07:07:19;;;;;;;;;;;12.10;68.30;;;;;;5042576;27;76691;-68
2021/04/09 07:09:45;;;;;;;;;;;12.10;68.50;;;;;;5039220;27;76395;-69
2021/04/09 07:12:27;;;;;;;;;;;12.10;68.60;;;;;;5042352;27;77458;-68
2021/04/09 07:15:16;;;;;;;;;;;12.10;69.00;;;;;;5042276;27;76290;-68
2021/04/09 07:17:48;;;;;;;;;;;12.10;69.20;;;;;;5040071;27;75633;-69
2021/04/09 07:20:15;;;;;;;;;;;12.10;69.40;;;;;;5040679;27;77138;-68
2021/04/09 07:22:46;;;;;;;;;;;12.10;69.80;;;;;;5039248;27;76377;-69
2021/04/09 07:25:13;;;;;;;;;;;12.10;70.50;;;;;;5037777;27;76310;-68
2021/04/09 07:27:39;;;;;;;;;;;12.10;70.30;;;;;;5044022;27;76439;-69
2021/04/09 07:30:06;;;;;;;;;;;12.10;70.40;;;;;;5042278;27;75181;-69
2021/04/09 07:32:32;;;;;;;;;;;12.10;70.50;;;;;;5044341;27;76260;-69
2021/04/09 07:34:58;;;;;;;;;;;12.10;70.10;;;;;;5040649;27;75570;-68
2021/04/09 07:37:25;;;;;;;;;;;12.00;69.80;;;;;;5039833;27;76318;-69
2021/04/09 07:39:58;;;;;;;;;;;12.00;69.70;;;;;;5046401;27;75937;-70
2021/04/09 07:42:34;;;;;;;;;;;12.00;69.80;;;;;;5045227;27;76504;-70
2021/04/09 07:45:01;;;;;;;;;;;12.00;70.20;;;;;;5044945;27;76786;-69
2021/04/09 07:47:27;;;;;;;;;;;12.10;69.70;;;;;;5044830;27;76161;-71
2021/04/09 07:50:22;;;;;;;;;;;12.20;69.90;;;;;;5046912;27;76288;-68
2021/04/09 07:52:51;;;;;;;;;;;12.20;69.80;;;;;;5036889;27;76379;-69
2021/04/09 07:55:21;;;;;;;;;;;12.10;69.80;;;;;;5045890;27;78301;-69
2021/04/09 07:57:47;;;;;;;;;;;12.00;70.50;;;;;;5044692;27;76756;-70
2021/04/09 08:00:21;;;;;;;;;;;11.90;71.30;;;;;;5044205;27;75610;-70
2021/04/09 08:02:47;;;;;;;;;;;11.90;71.40;;;;;;5042731;27;76271;-70
2021/04/09 08:05:14;;;;;;;;;;;11.90;71.80;;;;;;5042482;27;77936;-68
2021/04/09 08:07:41;;;;;;;;;;;11.90;72.50;;;;;;5044728;27;76029;-69
2021/04/09 08:10:07;;;;;;;;;;;12.00;72.80;;;;;;5040931;27;75693;-69
2021/04/09 08:12:34;;;;;;;;;;;12.00;72.60;;;;;;5045248;27;77301;-69
2021/04/09 08:15:12;;;;;;;;;;;12.00;72.50;;;;;;5045627;27;76434;-69
2021/04/09 08:17:38;;;;;;;;;;;11.90;72.40;;;;;;5048839;27;75782;-68
2021/04/09 08:20:13;;;;;;;;;;;12.00;72.70;;;;;;5047514;27;76255;-68
2021/04/09 08:22:39;;;;;;;;;;;12.00;72.60;;;;;;5043994;27;76485;-69
2021/04/09 08:25:05;;;;;;;;;;;11.90;73.90;;;;;;5043240;27;76237;-69
2021/04/09 08:27:32;;;;;;;;;;;11.70;73.80;;;;;;5047209;27;76548;-69
2021/04/09 08:29:59;;;;;;;;;;;11.60;73.90;;;;;;5045188;27;76699;-69
2021/04/09 08:32:25;;;;;;;;;;;11.60;74.30;;;;;;5043688;27;76873;-68
2021/04/09 08:34:50;;;;;;;;;;;11.60;74.60;;;;;;5045046;27;76443;-70
2021/04/09 08:37:16;;;;;;;;;;;11.80;74.30;;;;;;5043694;27;75965;-68
2021/04/09 08:39:42;;;;;;;;;;;11.80;74.00;;;;;;5042352;27;76555;-68
2021/04/09 08:42:08;;;;;;;;;;;11.90;74.30;;;;;;5047264;27;75943;-69
2021/04/09 08:44:34;;;;;;;;;;;11.90;73.50;;;;;;5046724;27;75609;-68
2021/04/09 08:47:00;;;;;;;;;;;11.90;73.20;;;;;;5045131;27;75912;-69
2021/04/09 08:49:26;;;;;;;;;;;11.90;73.10;;;;;;5044145;27;76040;-69
2021/04/09 08:51:52;;;;;;;;;;;11.90;73.50;;;;;;5040519;27;77380;-68
2021/04/09 08:54:17;;;;;;;;;;;11.90;73.30;;;;;;5044126;27;76381;-69
2021/04/09 08:56:43;;;;;;;;;;;11.90;73.20;;;;;;5044929;27;75808;-69
2021/04/09 08:59:08;;;;;;;;;;;12.00;73.20;;;;;;5046198;27;76167;-69
2021/04/09 09:01:34;;;;;;;;;;;11.90;72.90;;;;;;5038868;27;76436;-69
2021/04/09 09:04:26;;;;;;;;;;;12.00;73.20;;;;;;5046205;27;76567;-68
2021/04/09 09:06:51;;;;;;;;;;;12.10;72.60;;;;;;5044198;27;76712;-69
2021/04/09 09:09:27;;;;;;;;;;;12.20;72.70;;;;;;5042725;27;76003;-69
2021/04/09 09:11:53;;;;;;;;;;;12.30;72.10;;;;;;5044644;27;76047;-69
2021/04/09 09:14:34;;;;;;;;;;;12.20;71.80;;;;;;5045047;27;75311;-68
2021/04/09 09:17:17;;;;;;;;;;;12.30;72.20;;;;;;5039754;27;97164;-69
2021/04/09 09:19:43;;;;;;;;;;;12.40;72.30;;;;;;5046316;27;76409;-69
2021/04/09 09:22:14;;;;;;;;;;;12.40;72.00;;;;;;5043877;27;76296;-70
2021/04/09 09:24:58;;;;;;;;;;;12.40;71.90;;;;;;5039111;27;77329;-69
2021/04/09 09:27:43;;;;;;;;;;;12.50;72.10;;;;;;5040863;27;75479;-69
2021/04/09 09:30:28;;;;;;;;;;;12.60;71.60;;;;;;5048089;27;76032;-69
2021/04/09 09:33:12;;;;;;;;;;;12.80;71.30;;;;;;5043235;27;75589;-69
2021/04/09 09:35:57;;;;;;;;;;;12.80;71.00;;;;;;5043218;27;76450;-68
2021/04/09 09:38:41;;;;;;;;;;;12.80;71.00;;;;;;5042278;27;77356;-70
2021/04/09 09:41:07;;;;;;;;;;;12.80;70.70;;;;;;5041065;27;78093;-70
2021/04/09 09:43:33;;;;;;;;;;;12.80;70.70;;;;;;5040641;27;76288;-71
2021/04/09 09:45:58;;;;;;;;;;;13.00;70.20;;;;;;5042770;27;75665;-70
2021/04/09 09:48:24;;;;;;;;;;;13.10;69.70;;;;;;5041699;27;76092;-70
2021/04/09 09:50:49;;;;;;;;;;;13.20;68.70;;;;;;5043671;27;76772;-70
2021/04/09 09:53:15;;;;;;;;;;;13.30;68.70;;;;;;5044831;27;76097;-68
2021/04/09 09:55:46;;;;;;;;;;;13.50;68.40;;;;;;5041227;27;76251;-69
2021/04/09 09:58:26;;;;;;;;;;;13.60;67.60;;;;;;5044693;27;76028;-68
2021/04/09 10:00:57;;;;;;;;;;;13.70;65.40;;;;;;5044204;27;76463;-69
2021/04/09 10:03:41;;;;;;;;;;;13.80;64.30;;;;;;5041182;27;76384;-69
2021/04/09 10:06:11;;;;;;;;;;;13.80;63.60;;;;;;5041596;27;76125;-70
2021/04/09 10:08:38;;;;;;;;;;;13.90;64.00;;;;;;5041247;27;76209;-69
2021/04/09 10:11:06;;;;;;;;;;;14.10;63.60;;;;;;5040842;27;75771;-70
2021/04/09 10:13:38;;;;;;;;;;;14.20;63.10;;;;;;5035212;27;77901;-69
2021/04/09 10:16:14;;;;;;;;;;;14.20;62.40;;;;;;5038015;27;78803;-70
2021/04/09 10:18:52;;;;;;;;;;;14.20;62.80;;;;;;5051846;27;75397;-70
2021/04/09 10:21:22;;;;;;;;;;;14.30;63.00;;;;;;5072446;27;75857;-70
2021/04/09 10:23:49;;;;;;;;;;;14.40;60.20;;;;;;5045677;27;77038;-70
2021/04/09 10:26:16;;;;;;;;;;;14.20;59.50;;;;;;5069973;27;77344;-70
2021/04/09 10:28:42;;;;;;;;;;;14.20;59.20;;;;;;5070098;27;75390;-69
2021/04/09 10:31:20;;;;;;;;;;;14.20;58.00;;;;;;5072110;27;75434;-70
2021/04/09 10:33:47;;;;;;;;;;;14.00;57.70;;;;;;5072545;27;75145;-70
2021/04/09 10:36:17;;;;;;;;;;;13.90;57.70;;;;;;5070144;27;77431;-70
2021/04/09 10:38:43;;;;;;;;;;;13.90;59.00;;;;;;5059901;27;77382;-71
2021/04/09 10:41:20;;;;;;;;;;;14.00;59.00;;;;;;5036468;27;80518;-69
2021/04/09 10:43:52;;;;;;;;;;;14.10;59.70;;;;;;4949287;27;76547;-69
2021/04/09 10:46:18;;;;;;;;;;;14.30;59.90;;;;;;5017473;27;80748;-71
2021/04/09 10:48:44;;;;;;;;;;;14.50;58.70;;;;;;5057377;27;76385;-69
2021/04/09 10:51:10;;;;;;;;;;;14.60;59.20;;;;;;5055011;27;76056;-70
2021/04/09 10:53:37;;;;;;;;;;;14.60;59.80;;;;;;5047389;27;75488;-69
2021/04/09 10:56:03;;;;;;;;;;;14.70;59.50;;;;;;5049645;27;75474;-70
2021/04/09 10:58:29;;;;;;;;;;;14.70;58.90;;;;;;5050978;27;74939;-70
2021/04/09 11:00:55;;;;;;;;;;;14.60;58.70;;;;;;5048806;28;77124;-70
2021/04/09 11:03:20;;;;;;;;;;;14.60;58.80;;;;;;5065783;27;74715;-70
2021/04/09 11:05:46;;;;;;;;;;;14.60;59.10;;;;;;5042398;27;75378;-69
2021/04/09 11:08:27;;;;;;;;;;;14.60;58.60;;;;;;5066054;27;76270;-70
2021/04/09 11:10:58;;;;;;;;;;;14.60;58.20;;;;;;5042072;27;75549;-71
2021/04/09 11:13:31;;;;;;;;;;;14.50;57.90;;;;;;5049196;27;75250;-69
2021/04/09 11:15:57;;;;;;;;;;;14.50;59.00;;;;;;5053503;27;76676;-69
2021/04/09 11:18:22;;;;;;;;;;;14.60;58.90;;;;;;5054500;27;75675;-68
2021/04/09 11:20:48;;;;;;;;;;;14.60;58.50;;;;;;5055496;27;74992;-70
2021/04/09 11:23:14;;;;;;;;;;;14.60;59.00;;;;;;5055156;28;75663;-72
2021/04/09 11:25:42;;;;;;;;;;;14.60;59.00;;;;;;5052195;27;76746;-71
2021/04/09 11:28:20;;;;;;;;;;;14.60;59.70;;;;;;5053767;27;75208;-71
2021/04/09 11:30:55;;;;;;;;;;;14.70;59.30;;;;;;5035365;28;75218;-71
2021/04/09 11:33:28;;;;;;;;;;;14.90;59.30;;;;;;5033393;28;77246;-71
2021/04/09 11:35:54;;;;;;;;;;;15.10;59.40;;;;;;5035773;28;74763;-70
2021/04/09 11:38:20;;;;;;;;;;;15.40;58.00;;;;;;5049612;27;76757;-70
2021/04/09 11:40:46;;;;;;;;;;;15.40;57.50;;;;;;5053319;28;76952;-70
2021/04/09 11:43:12;;;;;;;;;;;15.30;55.70;;;;;;5064053;27;77159;-70
2021/04/09 11:45:46;;;;;;;;;;;15.10;55.20;;;;;;5074038;27;77067;-69
2021/04/09 11:48:21;;;;;;;;;;;14.90;56.60;;;;;;5058141;27;76724;-70
2021/04/09 11:50:47;;;;;;;;;;;14.90;57.20;;;;;;5053471;28;75148;-71
2021/04/09 11:53:12;;;;;;;;;;;14.90;57.70;;;;;;5054225;28;74923;-72
2021/04/09 11:55:39;;;;;;;;;;;14.80;56.80;;;;;;5051532;28;75435;-71
2021/04/09 11:58:15;;;;;;;;;;;14.40;57.60;;;;;;5054507;27;75735;-72
2021/04/09 12:00:52;;;;;;;;;;;14.40;58.20;;;;;;5054456;28;74476;-71
2021/04/09 12:03:17;;;;;;;;;;;14.20;58.50;;;;;;5054485;28;75256;-70
2021/04/09 12:05:43;;;;;;;;;;;14.20;58.30;;;;;;5054708;28;75972;-70
2021/04/09 12:08:08;;;;;;;;;;;14.10;58.50;;;;;;5065337;27;76905;-70
2021/04/09 12:10:35;;;;;;;;;;;14.30;59.30;;;;;;5055178;27;75196;-69
2021/04/09 12:13:01;;;;;;;;;;;14.50;59.00;;;;;;5054809;28;74490;-69
2021/04/09 12:15:28;;;;;;;;;;;14.80;58.30;;;;;;5055500;28;74418;-70
2021/04/09 12:17:53;;;;;;;;;;;15.00;58.40;;;;;;5052033;27;77283;-69
2021/04/09 12:20:20;;;;;;;;;;;15.40;58.40;;;;;;5052913;28;76942;-70
2021/04/09 12:22:47;;;;;;;;;;;16.10;56.70;;;;;;5054597;28;75719;-70
2021/04/09 12:25:13;;;;;;;;;;;16.70;54.50;;;;;;5053026;28;76981;-70
2021/04/09 12:27:39;;;;;;;;;;;17.10;53.60;;;;;;5052096;28;77895;-71
2021/04/09 12:30:06;;;;;;;;;;;17.30;52.40;;;;;;5052885;27;76592;-70
2021/04/09 12:32:32;;;;;;;;;;;17.10;52.40;;;;;;5060294;27;75358;-70
2021/04/09 12:34:58;;;;;;;;;;;16.90;52.90;;;;;;5052297;27;77787;-71
2021/04/09 12:37:24;;;;;;;;;;;16.90;53.80;;;;;;5056596;27;74615;-70
2021/04/09 12:39:49;;;;;;;;;;;16.90;53.60;;;;;;5060699;27;75724;-71
2021/04/09 12:42:15;;;;;;;;;;;17.10;53.40;;;;;;5056266;27;76823;-70
2021/04/09 12:44:41;;;;;;;;;;;17.40;52.60;;;;;;5071351;27;76256;-71
2021/04/09 12:47:07;;;;;;;;;;;17.70;52.30;;;;;;5074039;27;75667;-70
2021/04/09 12:49:32;;;;;;;;;;;17.80;51.70;;;;;;5073821;27;75119;-70
2021/04/09 12:51:58;;;;;;;;;;;17.60;50.90;;;;;;5074461;27;75453;-70
2021/04/09 12:54:24;;;;;;;;;;;17.50;51.80;;;;;;5074533;27;74992;-70
2021/04/09 12:56:49;;;;;;;;;;;17.40;51.80;;;;;;5074217;27;75179;-70
2021/04/09 12:59:15;;;;;;;;;;;17.40;52.30;;;;;;5056803;27;75231;-70
2021/04/09 13:01:41;;;;;;;;;;;17.30;51.80;;;;;;5053604;27;74560;-70
2021/04/09 13:04:07;;;;;;;;;;;17.00;52.30;;;;;;5052847;27;76588;-70
2021/04/09 13:06:32;;;;;;;;;;;16.80;51.20;;;;;;5054032;27;74985;-70
2021/04/09 13:08:58;;;;;;;;;;;16.50;53.00;;;;;;5060107;27;75287;-68
2021/04/09 13:11:24;;;;;;;;;;;16.40;53.20;;;;;;5052039;28;78010;-71
2021/04/09 13:13:49;;;;;;;;;;;16.40;53.30;;;;;;5053964;28;75209;-71
2021/04/09 13:16:15;;;;;;;;;;;16.40;53.50;;;;;;5053814;28;75256;-71
2021/04/09 13:18:41;;;;;;;;;;;16.40;53.40;;;;;;5062999;27;75177;-71
2021/04/09 13:21:07;;;;;;;;;;;16.50;54.00;;;;;;5072099;27;76456;-71
2021/04/09 13:23:33;;;;;;;;;;;16.60;54.20;;;;;;5070161;27;77912;-71
2021/04/09 13:25:59;;;;;;;;;;;16.70;53.50;;;;;;5073018;27;75543;-70
2021/04/09 13:28:26;;;;;;;;;;;16.60;53.00;;;;;;5059672;27;75686;-69
2021/04/09 13:30:56;;;;;;;;;;;16.60;53.40;;;;;;5073718;27;75144;-69
2021/04/09 13:33:32;;;;;;;;;;;16.50;53.50;;;;;;5071900;27;77360;-70
2021/04/09 13:35:58;;;;;;;;;;;16.50;53.70;;;;;;5063634;27;75685;-70
2021/04/09 13:38:24;;;;;;;;;;;16.50;53.60;;;;;;5056733;27;74764;-71
2021/04/09 13:40:50;;;;;;;;;;;16.50;54.00;;;;;;5051512;28;75256;-71
2021/04/09 13:43:16;;;;;;;;;;;16.60;53.80;;;;;;5053555;28;75129;-68
2021/04/09 13:45:42;;;;;;;;;;;16.60;53.40;;;;;;5049802;27;77769;-71
2021/04/09 13:48:08;;;;;;;;;;;16.50;53.30;;;;;;5069586;27;75758;-70
2021/04/09 13:50:33;;;;;;;;;;;16.40;52.90;;;;;;5071743;27;75663;-73
2021/04/09 13:52:59;;;;;;;;;;;16.30;53.40;;;;;;5073453;27;74970;-69
2021/04/09 13:55:25;;;;;;;;;;;16.30;54.30;;;;;;5073486;27;74503;-71
2021/04/09 13:57:50;;;;;;;;;;;16.40;54.20;;;;;;5073574;27;75143;-70
2021/04/09 14:00:16;;;;;;;;;;;16.50;53.80;;;;;;5050797;27;77256;-69
2021/04/09 14:02:42;;;;;;;;;;;16.60;53.60;;;;;;5055309;27;77459;-70
2021/04/09 14:05:08;;;;;;;;;;;16.80;53.30;;;;;;5052736;28;75207;-74
2021/04/09 14:07:33;;;;;;;;;;;16.90;52.80;;;;;;5051574;28;78860;-71
2021/04/09 14:09:59;;;;;;;;;;;17.00;53.10;;;;;;5052730;27;75102;-72
2021/04/09 14:12:25;;;;;;;;;;;17.20;52.60;;;;;;5052757;28;74955;-69
2021/04/09 14:14:50;;;;;;;;;;;17.30;52.60;;;;;;5053372;28;75398;-70
2021/04/09 14:17:17;;;;;;;;;;;17.30;52.20;;;;;;5053128;28;74493;-70
2021/04/09 14:19:43;;;;;;;;;;;17.40;51.80;;;;;;5050992;28;78033;-69